createdAt,value
2018-02-05T00:01:47.577Z,63.73
2018-02-05T00:04:15.149Z,65.05
2018-02-05T00:06:43.613Z,64.43
2018-02-05T00:09:11.167Z,64.16
2018-02-05T00:11:38.735Z,64.49
2018-02-05T00:14:06.281Z,64.27
2018-02-05T00:16:33.829Z,64.57
2018-02-05T00:19:01.406Z,64.57
2018-02-05T00:21:28.952Z,64.55
2018-02-05T00:23:56.504Z,65.68
2018-02-05T00:26:24.330Z,64.86
2018-02-05T00:28:51.865Z,65.63
2018-02-05T00:31:19.441Z,65.79
2018-02-05T00:33:47.171Z,65.67
2018-02-05T00:36:14.729Z,65.27
2018-02-05T00:38:42.288Z,65.94
2018-02-05T00:41:10.007Z,66.38
2018-02-05T00:43:37.572Z,65.58
2018-02-05T00:46:05.132Z,65.89
2018-02-05T00:48:32.799Z,66.18
2018-02-05T00:51:00.351Z,66.71
2018-02-05T00:53:27.907Z,66.20
2018-02-05T00:55:55.638Z,66.98
2018-02-05T00:58:23.192Z,66.68
2018-02-05T01:00:50.771Z,66.36
2018-02-05T01:03:18.348Z,66.73
2018-02-05T01:05:45.893Z,67.15
2018-02-05T01:08:13.443Z,67.46
2018-02-05T01:10:41.023Z,67.73
2018-02-05T01:13:08.569Z,67.92
2018-02-05T01:15:36.127Z,68.20
2018-02-05T01:18:03.709Z,67.78
2018-02-05T01:20:31.323Z,68.37
2018-02-05T01:22:58.881Z,68.02
2018-02-05T01:25:26.602Z,67.98
2018-02-05T01:27:54.146Z,68.04
2018-02-05T01:30:21.686Z,68.00
2018-02-05T01:32:49.264Z,68.74
2018-02-05T01:35:16.830Z,68.27
2018-02-05T01:37:44.382Z,68.08
2018-02-05T01:40:11.952Z,68.67
2018-02-05T01:42:39.525Z,68.03
2018-02-05T01:45:07.089Z,68.36
2018-02-05T01:47:34.662Z,68.52
2018-02-05T01:50:02.252Z,69.23
2018-02-05T01:52:29.802Z,70.31
2018-02-05T01:54:57.486Z,71.04
2018-02-05T01:57:25.043Z,70.65
2018-02-05T01:59:52.608Z,71.15
2018-02-05T02:02:20.299Z,70.76
2018-02-05T02:04:47.864Z,71.69
2018-02-05T02:07:15.422Z,70.70
2018-02-05T02:09:43.167Z,70.61
2018-02-05T02:12:10.711Z,70.49
2018-02-05T02:14:38.277Z,71.05
2018-02-05T02:17:06.022Z,70.92
2018-02-05T02:19:33.664Z,70.68
2018-02-05T02:22:01.230Z,70.01
2018-02-05T02:24:28.935Z,68.44
2018-02-05T02:26:56.544Z,67.52
2018-02-05T02:29:24.090Z,67.31
2018-02-05T02:31:51.779Z,67.49
2018-02-05T02:34:19.329Z,67.81
2018-02-05T02:36:46.877Z,68.42
2018-02-05T02:39:14.563Z,68.30
2018-02-05T02:41:42.120Z,68.93
2018-02-05T02:44:09.687Z,68.64
2018-02-05T02:46:37.612Z,68.53
2018-02-05T02:49:05.169Z,68.98
2018-02-05T02:51:32.716Z,69.13
2018-02-05T02:54:00.266Z,69.63
2018-02-05T02:56:27.843Z,69.66
2018-02-05T02:58:56.202Z,69.44
2018-02-05T03:01:23.754Z,69.20
2018-02-05T03:03:51.377Z,69.09
2018-02-05T03:06:20.988Z,69.22
2018-02-05T03:08:48.546Z,69.84
2018-02-05T03:11:16.091Z,69.45
2018-02-05T03:13:43.673Z,69.55
2018-02-05T03:16:11.219Z,70.54
2018-02-05T03:18:38.806Z,69.82
2018-02-05T03:21:06.495Z,69.98
2018-02-05T03:23:34.102Z,70.87
2018-02-05T03:26:01.666Z,71.29
2018-02-05T03:28:29.550Z,71.22
2018-02-05T03:30:57.099Z,71.24
2018-02-05T03:33:24.684Z,71.65
2018-02-05T03:35:52.434Z,72.02
2018-02-05T03:38:19.976Z,71.61
2018-02-05T03:40:47.549Z,71.44
2018-02-05T03:43:15.127Z,71.35
2018-02-05T03:45:42.691Z,70.25
2018-02-05T03:48:10.245Z,70.55
2018-02-05T03:50:37.933Z,70.56
2018-02-05T03:53:05.499Z,71.67
2018-02-05T03:55:33.041Z,70.85
2018-02-05T03:58:00.735Z,70.82
2018-02-05T04:00:28.351Z,70.98
2018-02-05T04:02:55.903Z,70.94
2018-02-05T04:05:23.473Z,70.93
2018-02-05T04:07:51.017Z,70.44
2018-02-05T04:10:18.570Z,70.10
2018-02-05T04:12:46.154Z,69.78
2018-02-05T04:15:13.701Z,69.86
2018-02-05T04:17:41.276Z,70.33
2018-02-05T04:20:08.992Z,70.44
2018-02-05T04:22:36.540Z,70.64
2018-02-05T04:25:04.106Z,70.11
2018-02-05T04:27:31.799Z,70.19
2018-02-05T04:29:59.346Z,70.28
2018-02-05T04:32:26.894Z,70.27
2018-02-05T04:34:54.818Z,69.60
2018-02-05T04:37:22.374Z,69.73
2018-02-05T04:39:49.922Z,69.80
2018-02-05T04:42:17.618Z,70.17
2018-02-05T04:44:45.163Z,69.56
2018-02-05T04:47:12.721Z,70.06
2018-02-05T04:49:40.586Z,70.14
2018-02-05T04:52:08.205Z,69.55
2018-02-05T04:54:35.757Z,69.98
2018-02-05T04:57:03.353Z,70.63
2018-02-05T04:59:30.908Z,70.80
2018-02-05T05:01:58.467Z,71.37
2018-02-05T05:04:26.041Z,70.43
2018-02-05T05:06:53.581Z,69.81
2018-02-05T05:09:21.121Z,69.39
2018-02-05T05:11:48.689Z,69.86
2018-02-05T05:14:16.231Z,70.47
2018-02-05T05:16:43.787Z,70.56
2018-02-05T05:19:12.632Z,70.52
2018-02-05T05:21:40.192Z,70.85
2018-02-05T05:24:07.738Z,70.53
2018-02-05T05:26:35.403Z,70.45
2018-02-05T05:29:02.977Z,70.39
2018-02-05T05:31:30.526Z,70.54
2018-02-05T05:33:58.120Z,70.62
2018-02-05T05:36:25.676Z,70.17
2018-02-05T05:38:53.236Z,69.66
2018-02-05T05:41:21.187Z,69.52
2018-02-05T05:43:48.750Z,69.12
2018-02-05T05:46:16.307Z,69.14
2018-02-05T05:48:44.001Z,68.62
2018-02-05T05:51:11.619Z,68.33
2018-02-05T05:53:39.187Z,67.67
2018-02-05T05:56:06.795Z,67.82
2018-02-05T05:58:34.353Z,67.43
2018-02-05T06:01:01.919Z,67.39
2018-02-05T06:03:29.831Z,67.39
2018-02-05T06:05:57.401Z,67.03
2018-02-05T06:08:24.961Z,67.49
2018-02-05T06:10:52.649Z,66.77
2018-02-05T06:13:20.208Z,66.49
2018-02-05T06:15:47.757Z,67.82
2018-02-05T06:18:15.328Z,66.79
2018-02-05T06:20:42.898Z,66.83
2018-02-05T06:23:10.439Z,66.94
2018-02-05T06:25:38.180Z,66.45
2018-02-05T06:28:05.734Z,67.17
2018-02-05T06:30:33.286Z,66.57
2018-02-05T06:33:00.899Z,65.48
2018-02-05T06:35:28.466Z,65.25
2018-02-05T06:37:56.027Z,61.71
2018-02-05T06:40:23.906Z,62.19
2018-02-05T06:42:51.493Z,61.69
2018-02-05T06:45:19.063Z,62.39
2018-02-05T06:47:46.746Z,63.17
2018-02-05T06:50:25.907Z,60.16
2018-02-05T06:56:10.394Z,56.59
2018-02-05T06:58:38.126Z,55.88
2018-02-05T07:01:05.686Z,57.19
2018-02-05T07:03:33.244Z,57.07
2018-02-05T07:06:00.822Z,58.16
2018-02-05T07:08:28.387Z,58.26
2018-02-05T07:10:55.945Z,59.12
2018-02-05T07:13:23.522Z,59.61
2018-02-05T07:15:51.147Z,59.97
2018-02-05T07:18:18.701Z,59.94
2018-02-05T07:20:46.290Z,60.23
2018-02-05T07:23:13.844Z,60.45
2018-02-05T07:25:41.388Z,60.19
2018-02-05T07:28:09.091Z,61.53
2018-02-05T07:30:36.633Z,60.38
2018-02-05T07:33:04.188Z,60.51
2018-02-05T07:35:31.909Z,60.78
2018-02-05T07:37:59.477Z,60.05
2018-02-05T07:40:27.024Z,60.95
2018-02-05T07:42:54.712Z,60.78
2018-02-05T07:45:22.261Z,59.80
2018-02-05T07:47:49.820Z,59.80
2018-02-05T07:50:17.550Z,59.54
2018-02-05T07:52:45.119Z,59.99
2018-02-05T07:55:12.671Z,59.12
2018-02-05T07:57:40.502Z,59.18
2018-02-05T08:00:08.060Z,58.69
2018-02-05T08:02:35.599Z,60.10
2018-02-05T08:05:03.186Z,58.76
2018-02-05T08:07:30.736Z,58.79
2018-02-05T08:09:58.294Z,59.77
2018-02-05T08:12:25.873Z,59.35
2018-02-05T08:14:53.435Z,59.22
2018-02-05T08:17:20.995Z,58.62
2018-02-05T08:19:49.457Z,58.58
2018-02-05T08:22:17.035Z,59.38
2018-02-05T08:24:44.579Z,58.23
2018-02-05T08:27:12.164Z,59.13
2018-02-05T08:29:39.719Z,58.69
2018-02-05T08:32:07.277Z,58.96
2018-02-05T08:34:34.976Z,58.70
2018-02-05T08:37:02.547Z,57.42
2018-02-05T08:39:30.095Z,57.49
2018-02-05T08:41:57.796Z,55.67
2018-02-05T08:44:25.348Z,56.74
2018-02-05T08:46:52.917Z,56.83
2018-02-05T08:49:20.643Z,56.21
2018-02-05T08:51:48.222Z,56.89
2018-02-05T09:18:46.693Z,57.76
2018-02-05T09:21:14.266Z,57.27
2018-02-05T09:23:41.842Z,55.91
2018-02-05T09:26:09.430Z,56.61
2018-02-05T09:28:36.978Z,55.72
2018-02-05T09:31:04.527Z,55.01
2018-02-05T09:33:32.402Z,54.27
2018-02-05T09:35:59.953Z,55.22
2018-02-05T09:38:27.502Z,54.05
2018-02-05T09:40:55.113Z,54.17
2018-02-05T09:43:22.671Z,54.64
2018-02-05T09:45:50.220Z,54.99
2018-02-05T09:48:17.919Z,56.02
2018-02-05T09:50:45.479Z,55.49
2018-02-05T09:53:13.033Z,55.83
2018-02-05T09:55:40.721Z,55.44
2018-02-05T09:58:08.277Z,55.98
2018-02-05T10:00:35.829Z,54.38
2018-02-05T10:03:03.757Z,55.62
2018-02-05T10:05:31.307Z,54.54
2018-02-05T10:07:58.866Z,55.32
2018-02-05T10:10:26.599Z,55.32
2018-02-05T10:12:54.205Z,54.04
2018-02-05T10:15:22.064Z,54.83
2018-02-05T10:17:49.760Z,55.00
2018-02-05T10:20:17.306Z,55.05
2018-02-05T10:22:44.892Z,54.26
2018-02-05T10:25:12.492Z,55.42
2018-02-05T10:27:40.040Z,54.51
2018-02-05T10:30:07.608Z,55.18
2018-02-05T10:32:35.186Z,54.75
2018-02-05T10:35:02.774Z,53.32
2018-02-05T10:37:30.346Z,54.09
2018-02-05T10:39:58.222Z,52.59
2018-02-05T10:42:25.766Z,51.31
2018-02-05T10:44:55.017Z,50.57
2018-02-05T10:47:22.697Z,49.47
2018-02-05T10:49:50.240Z,49.15
2018-02-05T10:52:17.807Z,50.36
2018-02-05T10:54:45.365Z,51.76
2018-02-05T10:57:12.920Z,50.35
2018-02-05T10:59:40.790Z,48.78
2018-02-05T11:02:08.339Z,44.72
2018-02-05T11:04:35.882Z,44.43
2018-02-05T11:07:03.462Z,43.19
2018-02-05T11:09:31.039Z,44.74
2018-02-05T11:11:58.588Z,44.21
2018-02-05T11:14:26.174Z,46.47
2018-02-05T11:16:53.718Z,45.65
2018-02-05T11:19:21.293Z,42.33
2018-02-05T11:21:49.010Z,44.41
2018-02-05T11:24:16.563Z,46.31
2018-02-05T11:26:44.126Z,45.46
2018-02-05T11:29:11.818Z,43.80
2018-02-05T11:31:39.384Z,44.49
2018-02-05T11:34:06.942Z,44.08
2018-02-05T11:36:34.519Z,44.82
2018-02-05T11:39:02.067Z,45.30
2018-02-05T11:41:29.615Z,45.10
2018-02-05T11:43:57.190Z,45.34
2018-02-05T11:46:24.729Z,45.11
2018-02-05T11:48:52.283Z,46.01
2018-02-05T11:51:19.885Z,45.54
2018-02-05T11:53:47.435Z,43.83
2018-02-05T11:56:14.984Z,45.88
2018-02-05T11:58:42.566Z,44.57
2018-02-05T12:01:10.137Z,46.65
2018-02-05T12:03:37.722Z,45.37
2018-02-05T12:06:05.423Z,44.88
2018-02-05T12:08:32.969Z,45.26
2018-02-05T12:11:00.542Z,44.87
2018-02-05T12:13:28.289Z,45.28
2018-02-05T12:15:55.845Z,46.65
2018-02-05T12:18:23.403Z,44.22
2018-02-05T12:20:51.152Z,44.46
2018-02-05T12:23:18.714Z,45.66
2018-02-05T12:25:46.276Z,46.02
2018-02-05T12:28:13.956Z,45.67
2018-02-05T12:30:41.529Z,44.92
2018-02-05T12:33:09.091Z,44.67
2018-02-05T12:35:36.849Z,44.71
2018-02-05T12:38:04.403Z,44.12
2018-02-05T12:40:31.950Z,43.04
2018-02-05T12:42:59.648Z,42.46
2018-02-05T12:45:27.202Z,43.28
2018-02-05T12:47:54.771Z,44.10
2018-02-05T12:50:22.502Z,44.05
2018-02-05T12:52:50.055Z,42.55
2018-02-05T12:55:17.612Z,43.02
2018-02-05T12:57:45.293Z,41.54
2018-02-05T13:00:18.229Z,43.01
2018-02-05T13:02:46.850Z,42.30
2018-02-05T13:05:27.114Z,43.21
2018-02-05T13:07:54.820Z,44.00
2018-02-05T13:10:22.393Z,44.52
2018-02-05T13:12:49.961Z,43.58
2018-02-05T13:15:17.563Z,43.30
2018-02-05T13:17:45.097Z,42.18
2018-02-05T13:20:12.715Z,41.72
2018-02-05T13:22:41.057Z,42.42
2018-02-05T13:25:08.622Z,41.88
2018-02-05T13:27:36.182Z,43.22
2018-02-05T13:30:04.080Z,42.21
2018-02-05T13:32:31.627Z,43.77
2018-02-05T13:34:59.175Z,44.15
2018-02-05T13:37:27.023Z,44.25
2018-02-05T13:39:54.617Z,42.76
2018-02-05T13:42:22.158Z,42.51
2018-02-05T13:44:49.742Z,42.24
2018-02-05T13:47:17.296Z,44.09
2018-02-05T13:49:44.843Z,43.61
2018-02-05T13:52:12.723Z,43.27
2018-02-05T13:54:40.285Z,43.64
2018-02-05T13:57:07.822Z,43.91
2018-02-05T13:59:35.509Z,42.88
2018-02-05T14:02:03.066Z,40.53
2018-02-05T14:04:30.600Z,42.27
2018-02-05T14:06:58.166Z,46.18
2018-02-05T14:09:25.714Z,45.40
2018-02-05T14:11:53.262Z,45.08
2018-02-05T14:14:20.856Z,46.90
2018-02-05T14:16:48.448Z,48.45
2018-02-05T14:19:16.022Z,48.41
2018-02-05T14:21:43.754Z,48.71
2018-02-05T14:24:12.033Z,49.54
2018-02-05T14:26:39.586Z,50.99
2018-02-05T14:29:07.189Z,51.35
2018-02-05T14:31:34.763Z,52.95
2018-02-05T14:34:02.321Z,51.49
2018-02-05T14:36:29.915Z,53.54
2018-02-05T14:38:57.476Z,53.84
2018-02-05T14:41:25.044Z,53.07
2018-02-05T14:43:52.662Z,52.75
2018-02-05T14:46:20.280Z,54.12
2018-02-05T14:48:47.826Z,54.53
2018-02-05T14:51:15.404Z,53.95
2018-02-05T14:53:42.970Z,56.05
2018-02-05T14:56:10.509Z,57.13
2018-02-05T14:58:38.256Z,55.99
2018-02-05T15:01:05.802Z,55.62
2018-02-05T15:03:33.355Z,55.49
2018-02-05T15:06:00.992Z,56.33
2018-02-05T15:08:28.601Z,56.91
2018-02-05T15:10:56.164Z,57.00
2018-02-05T15:13:23.747Z,56.68
2018-02-05T15:15:51.316Z,57.44
2018-02-05T15:18:18.876Z,57.19
2018-02-05T15:20:46.474Z,58.38
2018-02-05T15:23:14.013Z,58.53
2018-02-05T15:25:41.588Z,59.15
2018-02-05T15:28:09.163Z,59.79
2018-02-05T15:30:36.713Z,59.13
2018-02-05T15:33:04.287Z,60.04
2018-02-05T15:35:31.887Z,60.04
2018-02-05T15:37:59.458Z,60.54
2018-02-05T15:40:26.998Z,60.84
2018-02-05T15:42:54.729Z,61.61
2018-02-05T15:45:22.276Z,61.67
2018-02-05T15:47:49.834Z,62.29
2018-02-05T15:50:17.533Z,61.89
2018-02-05T15:52:46.861Z,61.94
2018-02-05T15:55:14.413Z,62.41
2018-02-05T15:57:42.154Z,61.97
2018-02-05T16:00:09.711Z,61.63
2018-02-05T16:02:37.275Z,61.34
2018-02-05T16:05:05.014Z,61.77
2018-02-05T16:07:32.586Z,61.55
2018-02-05T16:10:00.139Z,61.62
2018-02-05T16:12:27.893Z,61.19
2018-02-05T16:14:55.565Z,62.00
2018-02-05T16:17:23.132Z,62.82
2018-02-05T16:19:50.729Z,62.39
2018-02-05T16:22:18.278Z,62.13
2018-02-05T16:24:45.828Z,62.54
2018-02-05T16:27:13.436Z,62.35
2018-02-05T16:29:40.994Z,61.98
2018-02-05T16:32:08.596Z,61.63
2018-02-05T16:34:36.332Z,61.34
2018-02-05T16:37:03.887Z,61.28
2018-02-05T16:39:31.467Z,62.37
2018-02-05T16:41:59.173Z,61.92
2018-02-05T16:44:26.722Z,63.02
2018-02-05T16:46:54.276Z,63.92
2018-02-05T16:49:22.024Z,64.52
2018-02-05T16:51:49.586Z,64.13
2018-02-05T16:54:17.159Z,64.57
2018-02-05T16:56:44.838Z,64.48
2018-02-05T16:59:12.459Z,64.22
2018-02-05T17:01:40.065Z,63.82
2018-02-05T17:04:07.863Z,64.14
2018-02-05T17:06:35.438Z,63.45
2018-02-05T17:09:04.775Z,63.79
2018-02-05T17:11:32.497Z,64.45
2018-02-05T17:14:00.084Z,64.27
2018-02-05T17:16:27.647Z,64.73
2018-02-05T17:18:55.359Z,65.21
2018-02-05T17:21:22.942Z,65.46
2018-02-05T17:23:50.542Z,65.67
2018-02-05T17:26:18.384Z,65.04
2018-02-05T17:28:45.985Z,65.14
2018-02-05T17:31:13.573Z,65.17
2018-02-05T17:33:41.262Z,65.65
2018-02-05T17:36:08.872Z,65.32
2018-02-05T17:38:36.448Z,65.06
2018-02-05T17:41:04.256Z,65.12
2018-02-05T17:43:31.913Z,65.02
2018-02-05T17:45:59.518Z,64.62
2018-02-05T17:48:27.268Z,64.45
2018-02-05T17:50:54.846Z,64.82
2018-02-05T17:53:22.412Z,65.50
2018-02-05T17:55:49.986Z,64.83
2018-02-05T17:58:17.542Z,64.33
2018-02-05T18:00:45.126Z,63.90
2018-02-05T18:03:12.680Z,63.99
2018-02-05T18:05:40.255Z,63.43
2018-02-05T18:08:08.027Z,64.62
2018-02-05T18:10:35.590Z,64.22
2018-02-05T18:13:03.176Z,64.07
2018-02-05T18:15:31.147Z,64.23
2018-02-05T18:17:58.723Z,63.58
2018-02-05T18:20:26.336Z,63.27
2018-02-05T18:22:54.243Z,62.34
2018-02-05T18:25:21.823Z,62.65
2018-02-05T18:27:49.410Z,63.27
2018-02-05T18:30:17.010Z,63.11
2018-02-05T18:32:44.578Z,62.86
2018-02-05T18:35:12.183Z,64.61
2018-02-05T18:37:39.936Z,63.68
2018-02-05T18:40:07.482Z,63.98
2018-02-05T18:42:35.062Z,63.97
2018-02-05T18:45:02.661Z,63.93
2018-02-05T18:47:30.223Z,63.92
2018-02-05T18:49:57.803Z,64.99
2018-02-05T18:52:25.615Z,65.05
2018-02-05T18:54:53.166Z,64.92
2018-02-05T18:57:20.723Z,64.83
2018-02-05T18:59:48.418Z,64.77
2018-02-05T19:02:22.925Z,64.87
2018-02-05T19:04:50.739Z,64.01
2018-02-05T19:07:18.285Z,64.76
2018-02-05T19:09:45.855Z,64.58
2018-02-05T19:12:13.486Z,65.48
2018-02-05T19:14:41.046Z,66.70
2018-02-05T19:17:08.637Z,66.83
2018-02-05T19:19:36.425Z,67.31
2018-02-05T19:22:04.017Z,67.81
2018-02-05T19:24:31.585Z,67.82
2018-02-05T19:26:59.346Z,67.76
2018-02-05T19:29:26.931Z,67.64
2018-02-05T19:31:54.578Z,68.40
2018-02-05T19:34:23.307Z,68.73
2018-02-05T19:36:50.877Z,68.52
2018-02-05T19:39:18.467Z,69.13
2018-02-05T19:41:46.179Z,69.48
2018-02-05T19:44:13.765Z,67.83
2018-02-05T19:46:41.356Z,67.62
2018-02-05T19:49:09.218Z,68.49
2018-02-05T19:51:36.817Z,68.82
2018-02-05T19:54:04.395Z,69.46
2018-02-05T19:56:32.292Z,69.98
2018-02-05T19:58:59.867Z,69.58
2018-02-05T20:01:27.434Z,69.34
2018-02-05T20:03:55.239Z,69.61
2018-02-05T20:06:22.843Z,70.13
2018-02-05T20:08:50.422Z,70.29
2018-02-05T20:11:18.326Z,70.67
2018-02-05T20:13:45.889Z,70.64
2018-02-05T20:16:13.457Z,70.27
2018-02-05T20:18:41.215Z,71.03
2018-02-05T20:21:08.773Z,70.35
2018-02-05T20:23:36.321Z,71.05
2018-02-05T20:26:03.946Z,71.15
2018-02-05T20:28:31.506Z,70.24
2018-02-05T20:30:59.071Z,70.63
2018-02-05T20:33:26.902Z,71.25
2018-02-05T20:35:54.445Z,71.34
2018-02-05T20:38:21.998Z,71.81
2018-02-05T20:40:49.604Z,71.31
2018-02-05T20:43:17.179Z,71.07
2018-02-05T20:45:44.735Z,72.24
2018-02-05T20:48:12.570Z,72.46
2018-02-05T20:50:40.170Z,72.92
2018-02-05T20:53:07.744Z,71.73
2018-02-05T20:55:35.302Z,71.74
2018-02-05T20:58:02.906Z,71.72
2018-02-05T21:00:30.475Z,71.81
2018-02-05T21:02:58.042Z,71.81
2018-02-05T21:05:25.629Z,71.94
2018-02-05T21:07:53.230Z,71.44
2018-02-05T21:10:20.792Z,71.80
2018-02-05T21:12:48.352Z,72.49
2018-02-05T21:15:15.987Z,71.98
2018-02-05T21:17:43.539Z,71.78
2018-02-05T21:20:11.089Z,72.43
2018-02-05T21:22:39.011Z,71.17
2018-02-05T21:25:06.602Z,71.08
2018-02-05T21:27:34.164Z,71.40
2018-02-05T21:30:01.765Z,71.76
2018-02-05T21:32:29.344Z,71.59
2018-02-05T21:34:56.914Z,71.72
2018-02-05T21:37:24.790Z,71.68
2018-02-05T21:39:52.341Z,71.73
2018-02-05T21:42:19.969Z,71.01
2018-02-05T21:44:47.555Z,71.20
2018-02-05T21:47:15.122Z,71.21
2018-02-05T21:49:42.671Z,71.89
2018-02-05T21:52:10.278Z,71.85
2018-02-05T21:54:37.833Z,72.54
2018-02-05T21:57:05.398Z,73.51
2018-02-05T21:59:32.990Z,72.50
2018-02-05T22:02:00.534Z,72.90
2018-02-05T22:04:28.092Z,73.30
2018-02-05T22:06:55.663Z,73.34
2018-02-05T22:09:23.239Z,73.03
2018-02-05T22:11:50.793Z,73.94
2018-02-05T22:14:18.543Z,73.51
2018-02-05T22:16:46.101Z,72.14
2018-02-05T22:19:13.656Z,72.44
2018-02-05T22:21:41.413Z,72.50
2018-02-05T22:24:08.961Z,72.36
2018-02-05T22:26:36.508Z,72.22
2018-02-05T22:29:04.117Z,73.42
2018-02-05T22:31:31.680Z,73.68
2018-02-05T22:33:59.257Z,73.84
2018-02-05T22:36:26.858Z,72.82
2018-02-05T22:38:54.426Z,72.30
2018-02-05T22:41:21.975Z,72.01
2018-02-05T22:43:49.577Z,71.92
2018-02-05T22:46:17.127Z,73.46
2018-02-05T22:48:44.668Z,73.38
2018-02-05T22:51:12.262Z,72.80
2018-02-05T22:53:39.840Z,72.31
2018-02-05T22:56:07.400Z,72.28
2018-02-05T22:58:35.070Z,70.67
2018-02-05T23:01:02.609Z,71.52
2018-02-05T23:03:30.162Z,71.99
2018-02-05T23:05:57.750Z,72.04
2018-02-05T23:08:25.290Z,71.69
2018-02-05T23:10:52.841Z,71.82
2018-02-05T23:13:20.432Z,71.69
2018-02-05T23:15:48.000Z,72.21
2018-02-05T23:18:15.575Z,72.23
2018-02-05T23:20:43.694Z,71.02
2018-02-05T23:23:11.289Z,71.21
2018-02-05T23:25:38.853Z,71.87
2018-02-05T23:28:06.458Z,72.85
2018-02-05T23:30:34.019Z,72.11
2018-02-05T23:33:01.575Z,71.38
2018-02-05T23:35:29.318Z,72.67
2018-02-05T23:37:56.875Z,72.43
2018-02-05T23:40:24.427Z,71.66
2018-02-05T23:42:52.049Z,71.62
2018-02-05T23:45:19.596Z,72.05
2018-02-05T23:47:47.138Z,71.09
2018-02-05T23:50:14.863Z,71.47
2018-02-05T23:52:42.428Z,71.11
2018-02-05T23:55:09.986Z,71.21
2018-02-05T23:57:38.098Z,71.57
